createdAt,value
2022-11-16T00:00:21.213Z,100775.69
2022-11-16T00:02:53.213Z,100777.41
2022-11-16T00:05:27.982Z,100775.63
2022-11-16T00:07:59.594Z,100781.91
2022-11-16T00:10:29.643Z,100758.25
2022-11-16T00:12:59.458Z,100783.53
2022-11-16T00:15:30.034Z,100786.16
2022-11-16T00:17:59.593Z,100794.53
2022-11-16T00:20:29.405Z,100788.66
2022-11-16T00:22:59.917Z,100785.88
2022-11-16T00:25:29.481Z,100798.50
2022-11-16T00:27:59.264Z,100795.44
2022-11-16T00:30:29.739Z,100787.94
2022-11-16T00:33:02.935Z,100795.75
2022-11-16T00:35:39.682Z,100795.19
2022-11-16T00:38:10.022Z,100785.16
2022-11-16T00:40:40.678Z,100813.41
2022-11-16T00:43:10.521Z,100807.34
2022-11-16T00:45:43.789Z,100807.44
2022-11-16T00:48:14.860Z,100800.81
2022-11-16T00:50:47.038Z,100805.63
2022-11-16T00:53:19.774Z,100818.66
2022-11-16T00:55:50.965Z,100815.13
2022-11-16T00:58:22.980Z,100810.28
2022-11-16T01:01:07.457Z,100816.03
2022-11-16T01:03:39.033Z,100813.41
2022-11-16T01:06:16.053Z,100804.47
2022-11-16T01:08:47.128Z,100824.47
2022-11-16T01:11:37.308Z,100822.34
2022-11-16T01:14:09.700Z,100817.44
2022-11-16T01:16:40.204Z,100798.13
2022-11-16T01:19:10.776Z,100815.59
2022-11-16T01:21:41.308Z,100814.66
2022-11-16T01:24:11.408Z,100810.34
2022-11-16T01:26:45.618Z,100818.97
2022-11-16T01:29:17.385Z,100805.22
2022-11-16T01:31:53.712Z,100811.44
2022-11-16T01:34:25.216Z,100813.44
2022-11-16T01:37:01.466Z,100819.28
2022-11-16T01:39:34.989Z,100823.06
2022-11-16T01:42:05.999Z,100822.31
2022-11-16T01:44:38.974Z,100824.75
2022-11-16T01:47:18.660Z,100824.75
2022-11-16T01:49:57.863Z,100830.97
2022-11-16T01:52:36.901Z,100825.31
2022-11-16T01:55:08.371Z,100823.59
2022-11-16T01:57:50.413Z,100810.13
2022-11-16T02:00:24.122Z,100811.63
2022-11-16T02:03:03.556Z,100811.13
2022-11-16T02:06:02.704Z,100816.75
2022-11-16T02:09:07.265Z,100815.78
2022-11-16T02:11:53.200Z,100817.72
2022-11-16T02:14:38.210Z,100807.63
2022-11-16T02:17:28.513Z,100813.03
2022-11-16T02:20:24.645Z,100817.63
2022-11-16T02:23:13.182Z,100825.50
2022-11-16T02:26:21.680Z,100827.22
2022-11-16T02:29:16.685Z,100823.00
2022-11-16T02:32:01.131Z,100814.22
2022-11-16T02:34:39.790Z,100815.66
2022-11-16T02:37:13.613Z,100814.09
2022-11-16T02:39:47.999Z,100815.34
2022-11-16T02:42:32.686Z,100809.88
2022-11-16T02:45:08.383Z,100809.09
2022-11-16T02:47:42.252Z,100811.00
2022-11-16T02:50:19.178Z,100775.91
2022-11-16T02:52:49.414Z,100799.91
2022-11-16T02:55:19.871Z,100810.78
2022-11-16T02:58:00.399Z,100822.91
2022-11-16T03:00:51.109Z,100816.94
2022-11-16T03:03:33.278Z,100820.13
2022-11-16T03:06:26.121Z,100816.75
2022-11-16T03:09:06.292Z,100820.28
2022-11-16T03:11:59.081Z,100822.19
2022-11-16T03:14:47.994Z,100823.41
2022-11-16T03:17:40.697Z,100813.88
2022-11-16T03:20:16.252Z,100823.91
2022-11-16T03:22:48.322Z,100816.50
2022-11-16T03:25:21.161Z,100810.06
2022-11-16T03:27:55.968Z,100813.81
2022-11-16T03:30:29.243Z,100811.22
2022-11-16T03:33:29.054Z,100806.75
2022-11-16T03:36:19.607Z,100801.72
2022-11-16T03:38:53.873Z,100808.13
2022-11-16T03:41:26.475Z,100800.44
2022-11-16T03:43:59.393Z,100807.84
2022-11-16T03:46:30.198Z,100805.97
2022-11-16T03:49:04.868Z,100804.69
2022-11-16T03:51:38.352Z,100799.13
2022-11-16T03:54:08.836Z,100793.50
2022-11-16T03:56:39.006Z,100797.06
2022-11-16T03:59:09.564Z,100797.00
2022-11-16T04:01:44.551Z,100792.44
2022-11-16T04:04:36.665Z,100799.13
2022-11-16T04:07:26.255Z,100793.97
2022-11-16T04:10:14.999Z,100795.38
2022-11-16T04:13:04.511Z,100785.81
2022-11-16T04:15:53.485Z,100798.47
2022-11-16T04:18:45.270Z,100794.78
2022-11-16T04:21:54.205Z,100785.97
2022-11-16T04:24:31.495Z,100787.47
2022-11-16T04:27:27.845Z,100790.03
2022-11-16T04:30:01.396Z,100794.72
2022-11-16T04:32:54.256Z,100792.97
2022-11-16T04:35:44.491Z,100797.28
2022-11-16T04:38:26.591Z,100792.50
2022-11-16T04:40:56.770Z,100798.38
2022-11-16T04:43:28.546Z,100797.03
2022-11-16T04:46:28.221Z,100794.88
2022-11-16T04:49:04.806Z,100797.81
2022-11-16T04:51:35.065Z,100797.03
2022-11-16T04:54:14.395Z,100799.75
2022-11-16T04:56:45.088Z,100799.06
2022-11-16T04:59:16.634Z,100796.50
2022-11-16T05:02:08.332Z,100799.66
2022-11-16T05:04:56.023Z,100803.34
2022-11-16T05:07:34.021Z,100810.88
2022-11-16T05:10:15.614Z,100813.44
2022-11-16T05:12:49.905Z,100830.69
2022-11-16T05:15:21.368Z,100832.13
2022-11-16T05:17:53.882Z,100821.13
2022-11-16T05:20:47.559Z,100807.09
2022-11-16T05:23:47.725Z,100820.63
2022-11-16T05:26:23.846Z,100813.09
2022-11-16T05:28:59.903Z,100816.09
2022-11-16T05:31:32.265Z,100828.66
2022-11-16T05:34:05.933Z,100825.00
2022-11-16T05:36:36.743Z,100822.63
2022-11-16T05:39:07.969Z,100810.69
2022-11-16T05:41:40.922Z,100804.16
2022-11-16T05:44:11.380Z,100810.47
2022-11-16T05:46:46.306Z,100826.59
2022-11-16T05:49:17.602Z,100832.34
2022-11-16T05:51:49.352Z,100828.44
2022-11-16T05:54:24.677Z,100820.94
2022-11-16T05:56:56.692Z,100802.69
2022-11-16T05:59:27.638Z,100816.38
2022-11-16T06:02:01.198Z,100813.78
2022-11-16T06:04:31.841Z,100822.91
2022-11-16T06:07:03.301Z,100827.53
2022-11-16T06:09:38.979Z,100827.00
2022-11-16T06:12:17.820Z,100836.78
2022-11-16T06:14:50.222Z,100838.09
2022-11-16T06:17:21.128Z,100850.69
2022-11-16T06:19:51.745Z,100844.13
2022-11-16T06:22:22.622Z,100854.94
2022-11-16T06:24:53.110Z,100857.94
2022-11-16T06:27:24.465Z,100865.88
2022-11-16T06:29:54.242Z,100860.81
2022-11-16T06:32:25.459Z,100857.56
2022-11-16T06:34:56.759Z,100857.19
2022-11-16T06:37:27.601Z,100854.78
2022-11-16T06:39:58.888Z,100848.72
2022-11-16T06:42:30.735Z,100856.97
2022-11-16T06:45:02.353Z,100870.22
2022-11-16T06:47:40.431Z,100874.88
2022-11-16T06:50:12.671Z,100881.56
2022-11-16T06:52:43.662Z,100878.66
2022-11-16T06:55:14.874Z,100891.47
2022-11-16T06:57:47.648Z,100872.88
2022-11-16T07:00:22.016Z,100882.13
2022-11-16T07:02:53.504Z,100871.44
2022-11-16T07:05:26.439Z,100878.69
2022-11-16T07:07:58.471Z,100880.09
2022-11-16T07:10:29.085Z,100880.16
2022-11-16T07:13:07.294Z,100878.47
2022-11-16T07:15:40.674Z,100881.75
2022-11-16T07:18:12.004Z,100878.28
2022-11-16T07:20:42.395Z,100892.03
2022-11-16T07:23:16.496Z,100879.03
2022-11-16T07:25:48.610Z,100890.91
2022-11-16T07:28:31.316Z,100889.88
2022-11-16T07:31:14.641Z,100905.47
2022-11-16T07:33:47.564Z,100906.44
2022-11-16T07:36:35.762Z,100909.13
2022-11-16T07:39:08.086Z,100906.78
2022-11-16T07:41:43.637Z,100904.53
2022-11-16T07:44:25.289Z,100906.50
2022-11-16T07:47:08.212Z,100900.13
2022-11-16T07:49:39.314Z,100905.50
2022-11-16T07:52:30.053Z,100913.94
2022-11-16T07:55:03.203Z,100912.59
2022-11-16T07:57:33.381Z,100907.56
2022-11-16T08:00:09.515Z,100908.69
2022-11-16T08:02:58.283Z,100907.06
2022-11-16T08:05:29.147Z,100899.94
2022-11-16T08:07:59.143Z,100918.41
2022-11-16T08:10:34.187Z,100931.06
2022-11-16T08:13:04.255Z,100919.50
2022-11-16T08:15:35.013Z,100936.56
2022-11-16T08:18:08.511Z,100931.69
2022-11-16T08:20:40.032Z,100932.63
2022-11-16T08:23:13.007Z,100950.59
2022-11-16T08:25:43.449Z,100951.28
2022-11-16T08:28:15.561Z,100958.41
2022-11-16T08:30:51.004Z,100958.47
2022-11-16T08:33:25.528Z,100964.19
2022-11-16T08:35:56.944Z,100966.94
2022-11-16T08:38:27.821Z,100973.84
2022-11-16T08:40:58.472Z,100977.41
2022-11-16T08:43:28.600Z,100989.53
2022-11-16T08:45:59.530Z,100989.97
2022-11-16T08:48:31.513Z,100988.19
2022-11-16T08:51:18.482Z,100996.19
2022-11-16T08:53:58.841Z,101003.69
2022-11-16T08:56:31.338Z,101014.53
2022-11-16T08:59:01.792Z,101007.78
2022-11-16T09:01:33.958Z,101018.88
2022-11-16T09:04:04.317Z,101027.69
2022-11-16T09:06:34.442Z,101027.38
2022-11-16T09:09:05.053Z,101027.81
2022-11-16T09:11:35.057Z,101034.84
2022-11-16T09:14:05.625Z,101023.13
2022-11-16T09:16:35.448Z,101030.41
2022-11-16T09:19:05.784Z,101035.09
2022-11-16T09:21:37.759Z,101050.13
2022-11-16T09:24:11.200Z,101054.34
2022-11-16T09:26:41.212Z,101053.34
2022-11-16T09:29:16.320Z,101057.28
2022-11-16T09:31:47.353Z,101058.50
2022-11-16T09:34:18.239Z,101054.50
2022-11-16T09:36:48.277Z,101064.78
2022-11-16T09:39:37.090Z,101071.00
2022-11-16T09:42:41.830Z,101077.88
2022-11-16T09:45:24.274Z,101088.53
2022-11-16T09:47:58.823Z,101082.84
2022-11-16T09:50:48.232Z,101086.06
2022-11-16T09:53:23.852Z,101089.31
2022-11-16T09:55:57.907Z,101090.91
2022-11-16T09:58:43.556Z,101082.34
2022-11-16T10:01:38.812Z,101100.88
2022-11-16T10:04:16.788Z,101093.28
2022-11-16T10:07:03.091Z,101098.44
2022-11-16T10:09:33.533Z,101065.53
2022-11-16T10:12:21.915Z,101095.81
2022-11-16T10:15:02.726Z,101096.44
2022-11-16T10:18:34.411Z,101102.94
2022-11-16T10:21:10.194Z,101102.91
2022-11-16T10:23:52.543Z,101104.78
2022-11-16T10:26:36.959Z,101097.13
2022-11-16T10:29:39.519Z,101104.69
2022-11-16T10:32:32.708Z,101106.84
2022-11-16T10:35:22.946Z,101105.69
2022-11-16T10:37:54.351Z,101107.44
2022-11-16T10:40:31.668Z,101105.66
2022-11-16T10:43:26.258Z,101106.59
2022-11-16T10:46:04.528Z,101115.84
2022-11-16T10:48:43.955Z,101130.00
2022-11-16T10:51:13.994Z,101133.38
2022-11-16T10:53:48.538Z,101135.00
2022-11-16T10:56:38.515Z,101140.78
2022-11-16T10:59:14.853Z,101138.81
2022-11-16T11:01:54.378Z,101139.94
2022-11-16T11:04:30.231Z,101141.34
2022-11-16T11:07:25.732Z,101141.91
2022-11-16T11:09:56.625Z,101149.94
2022-11-16T11:12:41.796Z,101151.59
2022-11-16T11:15:27.772Z,101159.97
2022-11-16T11:18:17.472Z,101163.88
2022-11-16T11:20:53.309Z,101164.94
2022-11-16T11:23:27.985Z,101153.19
2022-11-16T11:26:01.027Z,101161.34
2022-11-16T11:28:37.527Z,101162.13
2022-11-16T11:31:09.487Z,101162.53
2022-11-16T11:34:19.421Z,101167.38
2022-11-16T11:36:55.453Z,101175.03
2022-11-16T11:39:25.407Z,101177.59
2022-11-16T11:42:16.841Z,101176.19
2022-11-16T11:45:09.412Z,101162.75
2022-11-16T11:48:00.870Z,101162.13
2022-11-16T11:51:10.070Z,101169.88
2022-11-16T11:53:48.403Z,101178.31
2022-11-16T11:56:20.245Z,101186.84
2022-11-16T11:58:51.449Z,101187.81
2022-11-16T12:01:37.252Z,101178.66
2022-11-16T12:04:10.051Z,101179.47
2022-11-16T12:07:05.164Z,101180.03
2022-11-16T12:09:52.502Z,101182.41
2022-11-16T12:12:40.711Z,101183.72
2022-11-16T12:15:13.295Z,101184.31
2022-11-16T12:17:46.876Z,101189.44
2022-11-16T12:20:38.369Z,101194.16
2022-11-16T12:23:23.503Z,101185.66
2022-11-16T12:26:07.786Z,101184.84
2022-11-16T12:28:51.259Z,101182.28
2022-11-16T12:31:28.632Z,101156.91
2022-11-16T12:34:06.874Z,101182.50
2022-11-16T12:36:57.271Z,101177.47
2022-11-16T12:39:42.480Z,101156.66
2022-11-16T12:42:40.017Z,101180.75
2022-11-16T12:45:32.187Z,101176.56
2022-11-16T12:48:29.901Z,101174.31
2022-11-16T12:51:13.183Z,101164.28
2022-11-16T12:53:58.137Z,101171.50
2022-11-16T12:56:37.538Z,101172.03
2022-11-16T12:59:39.517Z,101172.56
2022-11-16T13:02:12.661Z,101169.06
2022-11-16T13:04:47.765Z,101169.59
2022-11-16T13:07:32.977Z,101172.31
2022-11-16T13:10:11.523Z,101172.69
2022-11-16T13:12:43.772Z,101170.19
2022-11-16T13:15:20.392Z,101174.09
2022-11-16T13:18:01.062Z,101175.25
2022-11-16T13:20:53.832Z,101184.19
2022-11-16T13:23:51.046Z,101178.34
2022-11-16T13:26:33.740Z,101181.91
2022-11-16T13:29:16.021Z,101196.72
2022-11-16T13:31:57.929Z,101169.75
2022-11-16T13:34:35.367Z,101187.56
2022-11-16T13:37:40.485Z,101187.81
2022-11-16T13:40:22.468Z,101190.47
2022-11-16T13:43:07.534Z,101182.94
2022-11-16T13:45:38.016Z,101180.31
2022-11-16T13:48:35.523Z,101181.22
2022-11-16T13:51:09.510Z,101177.50
2022-11-16T13:56:54.655Z,101177.00
2022-11-16T13:59:32.009Z,101154.06
2022-11-16T14:02:31.842Z,101182.22
2022-11-16T14:05:22.989Z,101175.44
2022-11-16T14:07:53.456Z,101179.06
2022-11-16T14:10:35.659Z,101178.47
2022-11-16T14:13:07.817Z,101169.69
2022-11-16T14:15:39.913Z,101149.81
2022-11-16T14:18:12.910Z,101181.59
2022-11-16T14:20:59.870Z,101180.53
2022-11-16T14:23:38.807Z,101187.72
2022-11-16T14:26:47.127Z,101189.25
2022-11-16T14:29:35.696Z,101190.88
2022-11-16T14:32:19.075Z,101184.84
2022-11-16T14:34:52.574Z,101189.31
2022-11-16T14:37:31.462Z,101189.53
2022-11-16T14:40:22.024Z,101188.69
2022-11-16T14:43:16.021Z,101181.06
2022-11-16T14:45:55.757Z,101187.38
2022-11-16T14:48:29.766Z,101186.50
2022-11-16T14:51:49.276Z,101189.81
2022-11-16T14:54:40.496Z,101177.28
2022-11-16T14:57:24.924Z,101182.22
2022-11-16T15:00:14.390Z,101169.47
2022-11-16T15:02:51.002Z,101181.50
2022-11-16T15:05:30.365Z,101165.34
2022-11-16T15:08:02.692Z,101176.06
2022-11-16T15:10:32.953Z,101171.50
2022-11-16T15:13:03.561Z,101170.81
2022-11-16T15:15:33.938Z,101177.81
2022-11-16T15:18:04.501Z,101179.69
2022-11-16T15:20:40.498Z,101173.19
2022-11-16T15:23:16.227Z,101170.31
2022-11-16T15:25:53.065Z,101172.03
2022-11-16T15:28:27.120Z,101158.44
2022-11-16T15:31:00.413Z,101148.38
2022-11-16T15:33:33.046Z,101165.09
2022-11-16T15:36:22.988Z,101173.09
2022-11-16T15:38:57.026Z,101159.22
2022-11-16T15:41:30.664Z,101150.28
2022-11-16T15:44:16.921Z,101156.22
2022-11-16T15:46:54.642Z,101164.56
2022-11-16T15:49:30.782Z,101155.97
2022-11-16T15:52:01.698Z,101147.50
2022-11-16T15:54:53.006Z,101160.41
2022-11-16T15:57:25.497Z,101157.19
2022-11-16T16:00:00.294Z,101164.28
2022-11-16T16:02:32.197Z,101170.44
2022-11-16T16:05:02.641Z,101159.19
2022-11-16T16:07:46.164Z,101163.59
2022-11-16T16:10:22.834Z,101161.66
2022-11-16T16:12:55.526Z,101159.19
2022-11-16T16:15:31.012Z,101167.78
2022-11-16T16:18:02.130Z,101159.16
2022-11-16T16:20:35.150Z,101159.50
2022-11-16T16:23:18.981Z,101159.16
2022-11-16T16:25:50.766Z,101151.41
2022-11-16T16:28:23.776Z,101147.56
2022-11-16T16:30:54.409Z,101149.47
2022-11-16T16:33:29.641Z,101145.53
2022-11-16T16:35:59.784Z,101146.31
2022-11-16T16:38:30.435Z,101152.63
2022-11-16T16:41:08.541Z,101149.66
2022-11-16T16:43:44.143Z,101144.25
2022-11-16T16:46:17.247Z,101116.69
2022-11-16T16:48:52.278Z,101120.03
2022-11-16T16:51:27.101Z,101136.13
2022-11-16T16:53:57.508Z,101126.94
2022-11-16T16:56:29.973Z,101129.00
2022-11-16T16:59:01.638Z,101138.16
2022-11-16T17:01:34.408Z,101133.47
2022-11-16T17:04:05.226Z,101134.47
2022-11-16T17:06:36.734Z,101139.88
2022-11-16T17:09:08.522Z,101125.53
2022-11-16T17:11:40.506Z,101108.91
2022-11-16T17:14:11.537Z,101138.06
2022-11-16T17:16:44.174Z,101132.75
2022-11-16T17:19:15.357Z,101116.66
2022-11-16T17:21:46.457Z,101131.38
2022-11-16T17:24:18.150Z,101142.22
2022-11-16T17:26:50.833Z,101128.00
2022-11-16T17:29:22.164Z,101140.84
2022-11-16T17:31:54.440Z,101137.28
2022-11-16T17:34:25.486Z,101128.09
2022-11-16T17:37:00.554Z,101123.06
2022-11-16T17:39:30.958Z,101126.47
2022-11-16T17:42:02.739Z,101120.00
2022-11-16T17:44:34.495Z,101120.44
2022-11-16T17:47:05.612Z,101128.63
2022-11-16T17:49:40.512Z,101126.31
2022-11-16T17:52:11.635Z,101123.34
2022-11-16T17:54:46.902Z,101112.16
2022-11-16T17:57:17.981Z,101109.78
2022-11-16T17:59:49.661Z,101095.19
2022-11-16T18:02:20.736Z,101102.53
2022-11-16T18:04:51.510Z,101108.22
2022-11-16T18:07:22.087Z,101107.22
2022-11-16T18:09:52.204Z,101103.88
2022-11-16T18:12:22.626Z,101096.63
2022-11-16T18:15:21.303Z,101099.72
2022-11-16T18:17:44.982Z,101102.09
2022-11-16T18:20:15.317Z,101100.56
2022-11-16T18:22:46.044Z,101096.09
2022-11-16T18:25:16.331Z,101094.25
2022-11-16T18:27:53.720Z,101096.84
2022-11-16T18:30:25.069Z,101095.69
2022-11-16T18:32:58.435Z,101084.81
2022-11-16T18:35:28.492Z,101089.22
2022-11-16T18:37:58.917Z,101083.50
2022-11-16T18:40:29.762Z,101080.00
2022-11-16T18:43:00.246Z,101081.00
2022-11-16T18:45:30.293Z,101080.66
2022-11-16T18:48:00.727Z,101084.13
2022-11-16T18:50:30.749Z,101088.63
2022-11-16T18:53:01.223Z,101088.63
2022-11-16T18:55:31.335Z,101083.25
2022-11-16T18:58:01.848Z,101075.97
2022-11-16T19:00:31.970Z,101064.41
2022-11-16T19:03:07.114Z,101081.75
2022-11-16T19:05:40.657Z,101075.81
2022-11-16T19:08:11.518Z,101083.16
2022-11-16T19:10:41.626Z,101077.88
2022-11-16T19:13:11.458Z,101073.22
2022-11-16T19:15:42.958Z,101075.81
2022-11-16T19:18:21.060Z,101082.00
2022-11-16T19:20:52.421Z,101078.28
2022-11-16T19:23:22.433Z,101065.66
2022-11-16T19:26:02.141Z,101041.50
2022-11-16T19:28:36.800Z,101057.06
2022-11-16T19:31:12.208Z,101063.59
2022-11-16T19:33:42.721Z,101059.34
2022-11-16T19:36:15.995Z,101051.84
2022-11-16T19:38:47.794Z,101058.94
2022-11-16T19:41:21.456Z,101063.78
2022-11-16T19:43:53.842Z,101065.41
2022-11-16T19:46:27.839Z,101057.63
2022-11-16T19:48:58.363Z,101064.41
2022-11-16T19:51:33.422Z,101058.84
2022-11-16T19:54:04.588Z,101056.06
2022-11-16T19:56:34.998Z,101058.28
2022-11-16T19:59:05.093Z,101048.22
2022-11-16T20:01:35.631Z,101053.81
2022-11-16T20:04:06.114Z,101069.53
2022-11-16T20:06:42.674Z,101066.97
2022-11-16T20:09:13.654Z,101058.56
2022-11-16T20:11:44.351Z,101056.06
2022-11-16T20:14:15.897Z,101032.38
2022-11-16T20:16:50.881Z,101044.75
2022-11-16T20:19:26.177Z,101069.38
2022-11-16T20:22:00.542Z,101063.66
2022-11-16T20:24:30.506Z,101077.00
2022-11-16T20:27:00.377Z,101077.16
2022-11-16T20:29:30.774Z,101071.13
2022-11-16T20:32:00.724Z,101069.66
2022-11-16T20:34:31.134Z,101069.22
2022-11-16T20:37:01.172Z,101071.25
2022-11-16T20:39:33.005Z,101078.31
2022-11-16T20:42:03.264Z,101076.88
2022-11-16T20:44:33.894Z,101071.84
2022-11-16T20:47:04.185Z,101075.53
2022-11-16T20:49:34.537Z,101078.25
2022-11-16T20:52:04.309Z,101072.69
2022-11-16T20:54:34.945Z,101075.06
2022-11-16T20:57:05.841Z,101067.09
2022-11-16T20:59:36.324Z,101074.88
2022-11-16T21:02:06.347Z,101067.03
2022-11-16T21:04:36.731Z,101075.19
2022-11-16T21:07:08.070Z,101071.69
2022-11-16T21:09:58.297Z,101076.88
2022-11-16T21:12:46.157Z,101071.53
2022-11-16T21:15:16.611Z,101078.38
2022-11-16T21:17:46.481Z,101084.72
2022-11-16T21:20:32.514Z,101083.84
2022-11-16T21:23:02.529Z,101084.78
2022-11-16T21:25:32.294Z,101081.25
2022-11-16T21:28:02.666Z,101088.66
2022-11-16T21:30:32.450Z,101096.06
2022-11-16T21:33:02.865Z,101086.66
2022-11-16T21:35:32.819Z,101084.72
2022-11-16T21:38:03.444Z,101093.66
2022-11-16T21:40:33.500Z,101094.66
2022-11-16T21:43:04.039Z,101086.53
2022-11-16T21:45:33.976Z,101062.88
2022-11-16T21:48:04.434Z,101085.53
2022-11-16T21:50:34.496Z,101078.72
2022-11-16T21:53:06.414Z,101076.66
2022-11-16T21:55:36.749Z,101091.41
2022-11-16T21:58:07.370Z,101084.84
2022-11-16T22:00:39.200Z,101089.47
2022-11-16T22:03:09.560Z,101080.41
2022-11-16T22:05:58.895Z,101082.97
2022-11-16T22:08:29.218Z,101084.13
2022-11-16T22:10:59.182Z,101088.31
2022-11-16T22:13:29.645Z,101081.81
2022-11-16T22:15:59.627Z,101074.75
2022-11-16T22:18:30.766Z,101090.28
2022-11-16T22:21:01.921Z,101090.91
2022-11-16T22:23:33.133Z,101087.44
2022-11-16T22:26:08.836Z,101091.34
2022-11-16T22:28:40.444Z,101087.00
2022-11-16T22:31:13.828Z,101089.78
2022-11-16T22:33:44.355Z,101100.19
2022-11-16T22:36:14.997Z,101104.53
2022-11-16T22:38:46.961Z,101093.66
2022-11-16T22:41:16.937Z,101102.94
2022-11-16T22:43:47.361Z,101097.69
2022-11-16T22:46:17.378Z,101098.97
2022-11-16T22:48:49.212Z,101101.38
2022-11-16T22:51:25.492Z,101107.06
2022-11-16T22:54:09.314Z,101100.41
2022-11-16T22:56:39.763Z,101112.19
2022-11-16T22:59:10.973Z,101095.88
2022-11-16T23:01:41.109Z,101104.22
2022-11-16T23:04:11.574Z,101097.75
2022-11-16T23:06:41.021Z,101089.78
2022-11-16T23:09:10.722Z,101094.09
2022-11-16T23:11:59.303Z,101100.19
2022-11-16T23:14:47.363Z,101105.53
2022-11-16T23:17:17.826Z,101101.34
2022-11-16T23:20:08.699Z,101099.94
2022-11-16T23:22:57.785Z,101108.72
2022-11-16T23:25:46.274Z,101119.81
2022-11-16T23:28:17.963Z,101113.16
2022-11-16T23:30:48.189Z,101112.41
2022-11-16T23:33:18.603Z,101108.50
2022-11-16T23:35:48.501Z,101118.34
2022-11-16T23:38:18.925Z,101119.06
2022-11-16T23:40:48.881Z,101117.84
2022-11-16T23:43:37.885Z,101119.06
2022-11-16T23:46:08.119Z,101123.50
2022-11-16T23:48:38.781Z,101121.53
2022-11-16T23:51:08.231Z,101129.63
2022-11-16T23:53:38.267Z,101125.94
2022-11-16T23:56:09.217Z,101124.00
2022-11-16T23:58:39.497Z,101135.53
